sensor_id;sensor_type;location;lat;lon;timestamp;P1;durP1;ratioP1;P2;durP2;ratioP2
10687;SDS011;5392;42.688;23.298;2023-09-19T00:00:44;1.77;;;1.60;;
10687;SDS011;5392;42.688;23.298;2023-09-19T00:03:14;2.38;;;1.50;;
10687;SDS011;5392;42.688;23.298;2023-09-19T00:05:41;1.60;;;1.42;;
10687;SDS011;5392;42.688;23.298;2023-09-19T00:08:11;2.28;;;1.58;;
10687;SDS011;5392;42.688;23.298;2023-09-19T00:10:41;1.80;;;1.05;;
10687;SDS011;5392;42.688;23.298;2023-09-19T00:13:09;9.32;;;2.17;;
10687;SDS011;5392;42.688;23.298;2023-09-19T00:15:42;4.35;;;1.40;;
10687;SDS011;5392;42.688;23.298;2023-09-19T00:18:16;1.95;;;1.70;;
10687;SDS011;5392;42.688;23.298;2023-09-19T00:20:47;1.50;;;1.40;;
10687;SDS011;5392;42.688;23.298;2023-09-19T00:23:16;1.92;;;1.60;;
10687;SDS011;5392;42.688;23.298;2023-09-19T00:25:43;2.30;;;1.20;;
10687;SDS011;5392;42.688;23.298;2023-09-19T00:28:11;1.33;;;1.25;;
10687;SDS011;5392;42.688;23.298;2023-09-19T00:30:39;2.13;;;1.70;;
10687;SDS011;5392;42.688;23.298;2023-09-19T00:33:09;3.67;;;1.90;;
10687;SDS011;5392;42.688;23.298;2023-09-19T00:35:37;1.98;;;1.52;;
10687;SDS011;5392;42.688;23.298;2023-09-19T00:38:04;1.70;;;1.60;;
10687;SDS011;5392;42.688;23.298;2023-09-19T00:40:33;4.10;;;1.80;;
10687;SDS011;5392;42.688;23.298;2023-09-19T00:43:00;1.58;;;1.40;;
10687;SDS011;5392;42.688;23.298;2023-09-19T00:45:26;1.60;;;1.50;;
10687;SDS011;5392;42.688;23.298;2023-09-19T00:47:55;1.30;;;1.30;;
10687;SDS011;5392;42.688;23.298;2023-09-19T00:50:24;2.33;;;1.92;;
10687;SDS011;5392;42.688;23.298;2023-09-19T00:52:53;3.47;;;1.90;;
10687;SDS011;5392;42.688;23.298;2023-09-19T00:55:24;2.28;;;1.45;;
10687;SDS011;5392;42.688;23.298;2023-09-19T00:57:52;1.58;;;1.33;;
10687;SDS011;5392;42.688;23.298;2023-09-19T01:00:22;1.42;;;1.33;;
10687;SDS011;5392;42.688;23.298;2023-09-19T01:02:50;2.20;;;2.05;;
10687;SDS011;5392;42.688;23.298;2023-09-19T01:05:17;2.53;;;2.33;;
10687;SDS011;5392;42.688;23.298;2023-09-19T01:07:44;2.72;;;2.25;;
10687;SDS011;5392;42.688;23.298;2023-09-19T01:10:12;2.50;;;2.25;;
10687;SDS011;5392;42.688;23.298;2023-09-19T01:15:20;2.75;;;2.22;;
10687;SDS011;5392;42.688;23.298;2023-09-19T01:31:46;2.85;;;2.40;;
10687;SDS011;5392;42.688;23.298;2023-09-19T01:34:15;2.17;;;1.95;;
10687;SDS011;5392;42.688;23.298;2023-09-19T01:36:42;2.40;;;2.17;;
10687;SDS011;5392;42.688;23.298;2023-09-19T01:39:10;2.65;;;2.42;;
10687;SDS011;5392;42.688;23.298;2023-09-19T01:47:19;2.75;;;2.65;;
10687;SDS011;5392;42.688;23.298;2023-09-19T01:49:59;2.72;;;2.53;;
10687;SDS011;5392;42.688;23.298;2023-09-19T01:52:38;3.67;;;3.40;;
10687;SDS011;5392;42.688;23.298;2023-09-19T01:55:30;3.17;;;3.05;;
10687;SDS011;5392;42.688;23.298;2023-09-19T02:01:06;3.53;;;3.10;;
10687;SDS011;5392;42.688;23.298;2023-09-19T02:03:38;3.20;;;3.08;;
10687;SDS011;5392;42.688;23.298;2023-09-19T02:06:07;4.15;;;3.83;;
10687;SDS011;5392;42.688;23.298;2023-09-19T02:08:37;3.90;;;3.70;;
10687;SDS011;5392;42.688;23.298;2023-09-19T02:11:05;4.38;;;3.90;;
10687;SDS011;5392;42.688;23.298;2023-09-19T02:13:32;4.22;;;3.72;;
10687;SDS011;5392;42.688;23.298;2023-09-19T02:15:59;4.70;;;4.25;;
10687;SDS011;5392;42.688;23.298;2023-09-19T02:18:26;4.55;;;4.13;;
10687;SDS011;5392;42.688;23.298;2023-09-19T02:20:54;4.60;;;4.20;;
10687;SDS011;5392;42.688;23.298;2023-09-19T02:23:22;4.65;;;3.65;;
10687;SDS011;5392;42.688;23.298;2023-09-19T02:25:55;4.68;;;3.78;;
10687;SDS011;5392;42.688;23.298;2023-09-19T02:28:32;4.05;;;3.75;;
10687;SDS011;5392;42.688;23.298;2023-09-19T02:31:00;5.18;;;4.43;;
10687;SDS011;5392;42.688;23.298;2023-09-19T02:33:28;4.63;;;4.28;;
10687;SDS011;5392;42.688;23.298;2023-09-19T02:35:59;4.43;;;4.03;;
10687;SDS011;5392;42.688;23.298;2023-09-19T02:38:27;6.55;;;4.40;;
10687;SDS011;5392;42.688;23.298;2023-09-19T02:40:55;3.20;;;3.10;;
10687;SDS011;5392;42.688;23.298;2023-09-19T02:43:22;3.47;;;3.25;;
10687;SDS011;5392;42.688;23.298;2023-09-19T02:45:49;3.45;;;3.30;;
10687;SDS011;5392;42.688;23.298;2023-09-19T02:48:17;5.43;;;3.15;;
10687;SDS011;5392;42.688;23.298;2023-09-19T02:50:44;2.67;;;2.58;;
10687;SDS011;5392;42.688;23.298;2023-09-19T02:53:12;3.63;;;3.35;;
10687;SDS011;5392;42.688;23.298;2023-09-19T02:55:39;3.53;;;2.92;;
10687;SDS011;5392;42.688;23.298;2023-09-19T02:58:09;3.33;;;3.15;;
10687;SDS011;5392;42.688;23.298;2023-09-19T03:00:41;4.07;;;3.22;;
10687;SDS011;5392;42.688;23.298;2023-09-19T03:03:08;3.25;;;3.05;;
10687;SDS011;5392;42.688;23.298;2023-09-19T03:05:36;5.13;;;3.28;;
10687;SDS011;5392;42.688;23.298;2023-09-19T03:08:04;6.25;;;3.95;;
10687;SDS011;5392;42.688;23.298;2023-09-19T03:10:32;3.80;;;3.60;;
10687;SDS011;5392;42.688;23.298;2023-09-19T03:12:59;6.38;;;4.47;;
10687;SDS011;5392;42.688;23.298;2023-09-19T03:15:26;4.03;;;3.60;;
10687;SDS011;5392;42.688;23.298;2023-09-19T03:17:53;6.55;;;4.53;;
10687;SDS011;5392;42.688;23.298;2023-09-19T03:20:20;6.32;;;4.63;;
10687;SDS011;5392;42.688;23.298;2023-09-19T03:22:47;4.90;;;4.30;;
10687;SDS011;5392;42.688;23.298;2023-09-19T03:25:14;4.75;;;4.50;;
10687;SDS011;5392;42.688;23.298;2023-09-19T03:27:44;7.90;;;4.95;;
10687;SDS011;5392;42.688;23.298;2023-09-19T03:30:10;5.47;;;4.88;;
10687;SDS011;5392;42.688;23.298;2023-09-19T03:32:44;6.60;;;4.57;;
10687;SDS011;5392;42.688;23.298;2023-09-19T03:35:11;4.95;;;4.47;;
10687;SDS011;5392;42.688;23.298;2023-09-19T03:37:40;6.43;;;5.47;;
10687;SDS011;5392;42.688;23.298;2023-09-19T03:40:11;6.88;;;5.78;;
10687;SDS011;5392;42.688;23.298;2023-09-19T03:42:42;7.50;;;5.47;;
10687;SDS011;5392;42.688;23.298;2023-09-19T03:45:08;4.95;;;4.55;;
10687;SDS011;5392;42.688;23.298;2023-09-19T03:47:39;6.68;;;5.78;;
10687;SDS011;5392;42.688;23.298;2023-09-19T03:50:07;4.97;;;4.68;;
10687;SDS011;5392;42.688;23.298;2023-09-19T03:52:37;6.00;;;4.60;;
10687;SDS011;5392;42.688;23.298;2023-09-19T03:55:04;5.53;;;4.97;;
10687;SDS011;5392;42.688;23.298;2023-09-19T03:57:31;5.95;;;5.45;;
10687;SDS011;5392;42.688;23.298;2023-09-19T03:59:58;6.65;;;6.15;;
10687;SDS011;5392;42.688;23.298;2023-09-19T04:02:25;7.68;;;7.00;;
10687;SDS011;5392;42.688;23.298;2023-09-19T04:04:52;7.63;;;6.63;;
10687;SDS011;5392;42.688;23.298;2023-09-19T04:07:19;5.85;;;5.45;;
10687;SDS011;5392;42.688;23.298;2023-09-19T04:09:49;7.80;;;7.00;;
10687;SDS011;5392;42.688;23.298;2023-09-19T04:12:16;11.68;;;7.22;;
10687;SDS011;5392;42.688;23.298;2023-09-19T04:14:45;12.02;;;7.60;;
10687;SDS011;5392;42.688;23.298;2023-09-19T04:17:12;10.43;;;7.85;;
10687;SDS011;5392;42.688;23.298;2023-09-19T04:19:39;13.93;;;7.57;;
10687;SDS011;5392;42.688;23.298;2023-09-19T04:22:08;13.57;;;7.40;;
10687;SDS011;5392;42.688;23.298;2023-09-19T04:24:35;11.95;;;6.97;;
10687;SDS011;5392;42.688;23.298;2023-09-19T04:27:02;7.90;;;6.75;;
10687;SDS011;5392;42.688;23.298;2023-09-19T04:29:29;8.32;;;6.20;;
10687;SDS011;5392;42.688;23.298;2023-09-19T04:31:56;5.85;;;5.40;;
10687;SDS011;5392;42.688;23.298;2023-09-19T04:34:25;7.13;;;5.53;;
10687;SDS011;5392;42.688;23.298;2023-09-19T04:36:52;11.02;;;7.32;;
10687;SDS011;5392;42.688;23.298;2023-09-19T04:39:19;12.70;;;6.25;;
10687;SDS011;5392;42.688;23.298;2023-09-19T04:41:47;6.03;;;4.38;;
10687;SDS011;5392;42.688;23.298;2023-09-19T04:44:14;11.68;;;5.55;;
10687;SDS011;5392;42.688;23.298;2023-09-19T04:46:42;10.80;;;5.10;;
10687;SDS011;5392;42.688;23.298;2023-09-19T04:49:09;9.38;;;6.00;;
10687;SDS011;5392;42.688;23.298;2023-09-19T04:51:36;9.10;;;5.55;;
10687;SDS011;5392;42.688;23.298;2023-09-19T04:54:03;12.52;;;5.78;;
10687;SDS011;5392;42.688;23.298;2023-09-19T04:56:30;5.80;;;4.88;;
10687;SDS011;5392;42.688;23.298;2023-09-19T04:59:00;7.47;;;5.70;;
10687;SDS011;5392;42.688;23.298;2023-09-19T05:01:27;12.20;;;7.03;;
10687;SDS011;5392;42.688;23.298;2023-09-19T05:03:54;6.53;;;4.88;;
10687;SDS011;5392;42.688;23.298;2023-09-19T05:06:21;9.73;;;5.90;;
10687;SDS011;5392;42.688;23.298;2023-09-19T05:08:49;8.50;;;4.68;;
10687;SDS011;5392;42.688;23.298;2023-09-19T05:11:19;5.97;;;4.38;;
10687;SDS011;5392;42.688;23.298;2023-09-19T05:13:48;12.45;;;4.60;;
10687;SDS011;5392;42.688;23.298;2023-09-19T05:16:19;3.05;;;2.83;;
10687;SDS011;5392;42.688;23.298;2023-09-19T05:18:46;3.63;;;3.20;;
10687;SDS011;5392;42.688;23.298;2023-09-19T05:21:13;2.53;;;2.42;;
10687;SDS011;5392;42.688;23.298;2023-09-19T05:23:40;4.00;;;2.90;;
10687;SDS011;5392;42.688;23.298;2023-09-19T05:26:08;2.60;;;2.50;;
10687;SDS011;5392;42.688;23.298;2023-09-19T05:28:52;2.33;;;2.22;;
10687;SDS011;5392;42.688;23.298;2023-09-19T05:31:19;2.78;;;2.40;;
10687;SDS011;5392;42.688;23.298;2023-09-19T05:33:47;2.47;;;1.98;;
10687;SDS011;5392;42.688;23.298;2023-09-19T05:36:13;3.20;;;1.77;;
10687;SDS011;5392;42.688;23.298;2023-09-19T05:38:43;4.63;;;2.10;;
10687;SDS011;5392;42.688;23.298;2023-09-19T05:41:11;2.17;;;2.00;;
10687;SDS011;5392;42.688;23.298;2023-09-19T05:43:40;2.40;;;2.08;;
10687;SDS011;5392;42.688;23.298;2023-09-19T05:46:08;2.58;;;2.38;;
10687;SDS011;5392;42.688;23.298;2023-09-19T05:48:35;2.28;;;2.17;;
10687;SDS011;5392;42.688;23.298;2023-09-19T05:51:02;6.20;;;2.58;;
10687;SDS011;5392;42.688;23.298;2023-09-19T05:53:29;2.38;;;2.28;;
10687;SDS011;5392;42.688;23.298;2023-09-19T05:55:56;6.32;;;3.75;;
10687;SDS011;5392;42.688;23.298;2023-09-19T05:58:23;2.30;;;1.98;;
10687;SDS011;5392;42.688;23.298;2023-09-19T06:00:49;4.15;;;2.80;;
10687;SDS011;5392;42.688;23.298;2023-09-19T06:03:16;6.15;;;2.70;;
10687;SDS011;5392;42.688;23.298;2023-09-19T06:05:45;2.67;;;2.47;;
10687;SDS011;5392;42.688;23.298;2023-09-19T06:08:15;2.75;;;2.60;;
10687;SDS011;5392;42.688;23.298;2023-09-19T06:10:42;3.83;;;2.40;;
10687;SDS011;5392;42.688;23.298;2023-09-19T06:13:09;3.78;;;2.40;;
10687;SDS011;5392;42.688;23.298;2023-09-19T06:15:37;5.05;;;2.58;;
10687;SDS011;5392;42.688;23.298;2023-09-19T06:18:03;5.65;;;2.80;;
10687;SDS011;5392;42.688;23.298;2023-09-19T06:20:31;3.33;;;2.45;;
10687;SDS011;5392;42.688;23.298;2023-09-19T06:23:00;5.97;;;2.83;;
10687;SDS011;5392;42.688;23.298;2023-09-19T06:25:28;17.00;;;3.08;;
10687;SDS011;5392;42.688;23.298;2023-09-19T06:27:55;10.82;;;2.30;;
10687;SDS011;5392;42.688;23.298;2023-09-19T06:30:23;5.18;;;2.10;;
10687;SDS011;5392;42.688;23.298;2023-09-19T06:32:55;5.30;;;1.73;;
10687;SDS011;5392;42.688;23.298;2023-09-19T06:35:24;6.60;;;2.10;;
10687;SDS011;5392;42.688;23.298;2023-09-19T06:37:56;3.30;;;2.35;;
10687;SDS011;5392;42.688;23.298;2023-09-19T06:40:25;5.18;;;2.45;;
10687;SDS011;5392;42.688;23.298;2023-09-19T06:42:52;4.22;;;1.88;;
10687;SDS011;5392;42.688;23.298;2023-09-19T06:45:20;1.77;;;1.05;;
10687;SDS011;5392;42.688;23.298;2023-09-19T06:47:49;4.72;;;2.28;;
10687;SDS011;5392;42.688;23.298;2023-09-19T06:50:18;2.15;;;1.38;;
10687;SDS011;5392;42.688;23.298;2023-09-19T06:52:49;2.05;;;1.95;;
10687;SDS011;5392;42.688;23.298;2023-09-19T06:55:18;3.25;;;2.50;;
10687;SDS011;5392;42.688;23.298;2023-09-19T06:57:47;3.75;;;1.50;;
10687;SDS011;5392;42.688;23.298;2023-09-19T07:00:15;6.32;;;1.65;;
10687;SDS011;5392;42.688;23.298;2023-09-19T07:02:45;1.90;;;1.73;;
10687;SDS011;5392;42.688;23.298;2023-09-19T07:05:12;4.53;;;1.65;;
10687;SDS011;5392;42.688;23.298;2023-09-19T07:07:38;4.40;;;1.95;;
10687;SDS011;5392;42.688;23.298;2023-09-19T07:10:06;3.10;;;1.80;;
10687;SDS011;5392;42.688;23.298;2023-09-19T07:12:36;7.15;;;2.20;;
10687;SDS011;5392;42.688;23.298;2023-09-19T07:15:03;3.88;;;1.63;;
10687;SDS011;5392;42.688;23.298;2023-09-19T07:17:32;1.77;;;1.73;;
10687;SDS011;5392;42.688;23.298;2023-09-19T07:19:59;2.03;;;1.70;;
10687;SDS011;5392;42.688;23.298;2023-09-19T07:22:26;4.05;;;1.73;;
10687;SDS011;5392;42.688;23.298;2023-09-19T07:24:53;1.55;;;1.50;;
10687;SDS011;5392;42.688;23.298;2023-09-19T07:27:21;3.65;;;1.95;;
10687;SDS011;5392;42.688;23.298;2023-09-19T07:29:48;2.70;;;1.65;;
10687;SDS011;5392;42.688;23.298;2023-09-19T07:32:18;2.42;;;2.05;;
10687;SDS011;5392;42.688;23.298;2023-09-19T07:34:45;6.10;;;2.22;;
10687;SDS011;5392;42.688;23.298;2023-09-19T07:37:12;4.78;;;2.25;;
10687;SDS011;5392;42.688;23.298;2023-09-19T07:39:41;6.13;;;2.00;;
10687;SDS011;5392;42.688;23.298;2023-09-19T07:42:08;4.25;;;1.63;;
10687;SDS011;5392;42.688;23.298;2023-09-19T07:44:35;4.43;;;2.05;;
10687;SDS011;5392;42.688;23.298;2023-09-19T07:47:02;3.50;;;1.67;;
10687;SDS011;5392;42.688;23.298;2023-09-19T07:49:29;3.75;;;1.77;;
10687;SDS011;5392;42.688;23.298;2023-09-19T07:51:56;3.40;;;1.80;;
10687;SDS011;5392;42.688;23.298;2023-09-19T07:54:24;2.42;;;2.05;;
10687;SDS011;5392;42.688;23.298;2023-09-19T07:56:50;2.78;;;1.77;;
10687;SDS011;5392;42.688;23.298;2023-09-19T07:59:18;3.60;;;2.03;;
10687;SDS011;5392;42.688;23.298;2023-09-19T08:01:45;2.15;;;1.77;;
10687;SDS011;5392;42.688;23.298;2023-09-19T08:04:11;5.50;;;2.00;;
10687;SDS011;5392;42.688;23.298;2023-09-19T08:06:39;5.38;;;2.63;;
10687;SDS011;5392;42.688;23.298;2023-09-19T08:09:06;6.93;;;2.20;;
10687;SDS011;5392;42.688;23.298;2023-09-19T08:11:35;3.78;;;2.15;;
10687;SDS011;5392;42.688;23.298;2023-09-19T08:14:02;2.40;;;2.30;;
10687;SDS011;5392;42.688;23.298;2023-09-19T08:16:29;5.25;;;2.38;;
10687;SDS011;5392;42.688;23.298;2023-09-19T08:18:56;6.75;;;2.78;;
10687;SDS011;5392;42.688;23.298;2023-09-19T08:21:23;3.30;;;2.45;;
10687;SDS011;5392;42.688;23.298;2023-09-19T08:23:50;2.05;;;1.95;;
10687;SDS011;5392;42.688;23.298;2023-09-19T08:26:17;2.15;;;2.05;;
10687;SDS011;5392;42.688;23.298;2023-09-19T08:28:44;3.80;;;2.50;;
10687;SDS011;5392;42.688;23.298;2023-09-19T08:31:11;2.88;;;1.80;;
10687;SDS011;5392;42.688;23.298;2023-09-19T08:33:37;5.75;;;2.33;;
10687;SDS011;5392;42.688;23.298;2023-09-19T08:36:06;2.47;;;2.28;;
10687;SDS011;5392;42.688;23.298;2023-09-19T08:38:34;2.25;;;2.05;;
10687;SDS011;5392;42.688;23.298;2023-09-19T08:41:05;5.18;;;2.55;;
10687;SDS011;5392;42.688;23.298;2023-09-19T08:43:36;3.58;;;2.13;;
10687;SDS011;5392;42.688;23.298;2023-09-19T08:48:52;3.20;;;2.42;;
10687;SDS011;5392;42.688;23.298;2023-09-19T08:51:41;7.47;;;3.13;;
10687;SDS011;5392;42.688;23.298;2023-09-19T08:54:21;2.83;;;2.47;;
10687;SDS011;5392;42.688;23.298;2023-09-19T08:56:53;3.92;;;2.85;;
10687;SDS011;5392;42.688;23.298;2023-09-19T08:59:21;4.68;;;2.85;;
10687;SDS011;5392;42.688;23.298;2023-09-19T09:01:53;2.42;;;2.22;;
10687;SDS011;5392;42.688;23.298;2023-09-19T09:04:22;3.45;;;2.10;;
10687;SDS011;5392;42.688;23.298;2023-09-19T09:06:50;5.85;;;2.55;;
10687;SDS011;5392;42.688;23.298;2023-09-19T09:09:20;7.82;;;2.15;;
10687;SDS011;5392;42.688;23.298;2023-09-19T09:11:48;5.07;;;2.53;;
10687;SDS011;5392;42.688;23.298;2023-09-19T09:14:20;2.63;;;2.38;;
10687;SDS011;5392;42.688;23.298;2023-09-19T09:16:48;3.75;;;2.65;;
10687;SDS011;5392;42.688;23.298;2023-09-19T09:19:15;4.20;;;2.17;;
10687;SDS011;5392;42.688;23.298;2023-09-19T09:21:51;2.30;;;1.77;;
10687;SDS011;5392;42.688;23.298;2023-09-19T09:24:28;4.45;;;2.40;;
10687;SDS011;5392;42.688;23.298;2023-09-19T09:26:56;3.13;;;2.58;;
10687;SDS011;5392;42.688;23.298;2023-09-19T09:32:24;2.42;;;2.08;;
10687;SDS011;5392;42.688;23.298;2023-09-19T09:34:56;3.88;;;2.13;;
10687;SDS011;5392;42.688;23.298;2023-09-19T09:37:27;6.30;;;2.67;;
10687;SDS011;5392;42.688;23.298;2023-09-19T09:39:58;2.92;;;2.78;;
10687;SDS011;5392;42.688;23.298;2023-09-19T09:42:45;3.20;;;2.25;;
10687;SDS011;5392;42.688;23.298;2023-09-19T09:48:04;3.22;;;2.92;;
10687;SDS011;5392;42.688;23.298;2023-09-19T09:50:47;3.45;;;2.20;;
10687;SDS011;5392;42.688;23.298;2023-09-19T09:53:27;3.85;;;2.10;;
10687;SDS011;5392;42.688;23.298;2023-09-19T09:56:31;2.88;;;2.25;;
10687;SDS011;5392;42.688;23.298;2023-09-19T09:58:50;4.22;;;2.65;;
10687;SDS011;5392;42.688;23.298;2023-09-19T10:01:21;2.42;;;2.20;;
10687;SDS011;5392;42.688;23.298;2023-09-19T10:03:59;3.17;;;2.30;;
10687;SDS011;5392;42.688;23.298;2023-09-19T10:06:39;2.83;;;2.55;;
10687;SDS011;5392;42.688;23.298;2023-09-19T10:09:13;3.80;;;2.58;;
10687;SDS011;5392;42.688;23.298;2023-09-19T10:11:44;3.03;;;2.13;;
10687;SDS011;5392;42.688;23.298;2023-09-19T10:14:24;3.83;;;2.60;;
10687;SDS011;5392;42.688;23.298;2023-09-19T10:16:55;5.20;;;2.35;;
10687;SDS011;5392;42.688;23.298;2023-09-19T10:19:33;2.70;;;2.60;;
10687;SDS011;5392;42.688;23.298;2023-09-19T10:22:04;2.28;;;2.10;;
10687;SDS011;5392;42.688;23.298;2023-09-19T10:24:33;3.78;;;2.17;;
10687;SDS011;5392;42.688;23.298;2023-09-19T10:27:14;3.65;;;1.80;;
10687;SDS011;5392;42.688;23.298;2023-09-19T10:29:42;6.03;;;1.77;;
10687;SDS011;5392;42.688;23.298;2023-09-19T10:32:10;2.28;;;2.05;;
10687;SDS011;5392;42.688;23.298;2023-09-19T10:34:46;2.28;;;1.83;;
10687;SDS011;5392;42.688;23.298;2023-09-19T10:37:15;1.92;;;1.80;;
10687;SDS011;5392;42.688;23.298;2023-09-19T10:39:46;2.75;;;1.95;;
10687;SDS011;5392;42.688;23.298;2023-09-19T10:42:16;2.08;;;1.90;;
10687;SDS011;5392;42.688;23.298;2023-09-19T10:44:50;6.18;;;1.60;;
10687;SDS011;5392;42.688;23.298;2023-09-19T10:47:20;2.38;;;2.00;;
10687;SDS011;5392;42.688;23.298;2023-09-19T10:49:51;3.28;;;1.90;;
10687;SDS011;5392;42.688;23.298;2023-09-19T10:52:22;1.77;;;1.67;;
10687;SDS011;5392;42.688;23.298;2023-09-19T10:54:52;1.67;;;1.23;;
10687;SDS011;5392;42.688;23.298;2023-09-19T10:57:24;2.50;;;2.30;;
10687;SDS011;5392;42.688;23.298;2023-09-19T11:00:00;3.78;;;1.88;;
10687;SDS011;5392;42.688;23.298;2023-09-19T11:02:31;2.38;;;1.52;;
10687;SDS011;5392;42.688;23.298;2023-09-19T11:05:10;3.38;;;2.00;;
10687;SDS011;5392;42.688;23.298;2023-09-19T11:07:58;8.27;;;2.30;;
10687;SDS011;5392;42.688;23.298;2023-09-19T11:10:43;2.80;;;2.22;;
10687;SDS011;5392;42.688;23.298;2023-09-19T11:13:25;3.35;;;2.15;;
10687;SDS011;5392;42.688;23.298;2023-09-19T11:26:40;2.28;;;1.83;;
10687;SDS011;5392;42.688;23.298;2023-09-19T11:29:48;2.08;;;1.88;;
10687;SDS011;5392;42.688;23.298;2023-09-19T11:32:07;3.22;;;2.22;;
10687;SDS011;5392;42.688;23.298;2023-09-19T11:39:38;6.00;;;2.50;;
10687;SDS011;5392;42.688;23.298;2023-09-19T11:48:18;2.25;;;2.15;;
10687;SDS011;5392;42.688;23.298;2023-09-19T11:50:45;4.07;;;1.92;;
10687;SDS011;5392;42.688;23.298;2023-09-19T11:53:13;2.75;;;2.55;;
10687;SDS011;5392;42.688;23.298;2023-09-19T11:55:43;2.65;;;2.00;;
10687;SDS011;5392;42.688;23.298;2023-09-19T11:58:11;3.22;;;2.03;;
10687;SDS011;5392;42.688;23.298;2023-09-19T12:00:41;3.53;;;2.33;;
10687;SDS011;5392;42.688;23.298;2023-09-19T12:03:12;4.00;;;2.38;;
10687;SDS011;5392;42.688;23.298;2023-09-19T12:05:41;5.55;;;2.60;;
10687;SDS011;5392;42.688;23.298;2023-09-19T12:08:07;3.47;;;2.53;;
10687;SDS011;5392;42.688;23.298;2023-09-19T12:10:48;4.30;;;2.72;;
10687;SDS011;5392;42.688;23.298;2023-09-19T12:13:18;2.88;;;2.47;;
10687;SDS011;5392;42.688;23.298;2023-09-19T12:15:45;8.05;;;2.40;;
10687;SDS011;5392;42.688;23.298;2023-09-19T12:18:30;2.67;;;2.17;;
10687;SDS011;5392;42.688;23.298;2023-09-19T12:20:57;2.47;;;1.85;;
10687;SDS011;5392;42.688;23.298;2023-09-19T12:23:24;4.38;;;2.70;;
10687;SDS011;5392;42.688;23.298;2023-09-19T12:25:55;2.28;;;2.10;;
10687;SDS011;5392;42.688;23.298;2023-09-19T12:28:25;7.25;;;1.92;;
10687;SDS011;5392;42.688;23.298;2023-09-19T12:30:53;2.55;;;2.35;;
10687;SDS011;5392;42.688;23.298;2023-09-19T12:33:21;2.22;;;2.13;;
10687;SDS011;5392;42.688;23.298;2023-09-19T12:35:53;4.00;;;2.30;;
10687;SDS011;5392;42.688;23.298;2023-09-19T12:38:26;6.25;;;2.22;;
10687;SDS011;5392;42.688;23.298;2023-09-19T12:41:01;4.72;;;3.35;;
10687;SDS011;5392;42.688;23.298;2023-09-19T12:43:30;4.43;;;2.30;;
10687;SDS011;5392;42.688;23.298;2023-09-19T12:45:59;2.60;;;1.92;;
10687;SDS011;5392;42.688;23.298;2023-09-19T12:48:26;7.45;;;2.40;;
10687;SDS011;5392;42.688;23.298;2023-09-19T12:50:59;2.63;;;2.45;;
10687;SDS011;5392;42.688;23.298;2023-09-19T12:53:28;1.95;;;1.85;;
10687;SDS011;5392;42.688;23.298;2023-09-19T12:55:59;2.17;;;1.98;;
10687;SDS011;5392;42.688;23.298;2023-09-19T12:58:26;1.98;;;1.98;;
10687;SDS011;5392;42.688;23.298;2023-09-19T13:00:53;2.78;;;2.08;;
10687;SDS011;5392;42.688;23.298;2023-09-19T13:03:28;3.25;;;1.92;;
10687;SDS011;5392;42.688;23.298;2023-09-19T13:05:58;2.42;;;2.30;;
10687;SDS011;5392;42.688;23.298;2023-09-19T13:08:28;5.00;;;2.20;;
10687;SDS011;5392;42.688;23.298;2023-09-19T13:13:37;3.47;;;2.75;;
10687;SDS011;5392;42.688;23.298;2023-09-19T13:16:05;2.47;;;1.60;;
10687;SDS011;5392;42.688;23.298;2023-09-19T13:18:41;2.40;;;1.98;;
10687;SDS011;5392;42.688;23.298;2023-09-19T13:21:12;2.22;;;2.15;;
10687;SDS011;5392;42.688;23.298;2023-09-19T13:23:54;3.55;;;2.30;;
10687;SDS011;5392;42.688;23.298;2023-09-19T13:26:25;2.15;;;1.73;;
10687;SDS011;5392;42.688;23.298;2023-09-19T13:28:52;2.20;;;1.83;;
10687;SDS011;5392;42.688;23.298;2023-09-19T13:31:19;3.92;;;1.90;;
10687;SDS011;5392;42.688;23.298;2023-09-19T13:33:47;2.40;;;2.30;;
10687;SDS011;5392;42.688;23.298;2023-09-19T13:36:15;2.35;;;1.90;;
10687;SDS011;5392;42.688;23.298;2023-09-19T13:38:42;2.40;;;2.08;;
10687;SDS011;5392;42.688;23.298;2023-09-19T13:41:15;4.75;;;2.20;;
10687;SDS011;5392;42.688;23.298;2023-09-19T13:43:42;2.63;;;2.00;;
10687;SDS011;5392;42.688;23.298;2023-09-19T13:46:14;3.33;;;1.85;;
10687;SDS011;5392;42.688;23.298;2023-09-19T13:48:44;2.85;;;1.48;;
10687;SDS011;5392;42.688;23.298;2023-09-19T13:51:11;5.65;;;2.40;;
10687;SDS011;5392;42.688;23.298;2023-09-19T13:53:37;2.67;;;1.90;;
10687;SDS011;5392;42.688;23.298;2023-09-19T13:56:04;2.67;;;2.47;;
10687;SDS011;5392;42.688;23.298;2023-09-19T13:58:31;2.53;;;1.90;;
10687;SDS011;5392;42.688;23.298;2023-09-19T14:01:00;2.45;;;2.25;;
10687;SDS011;5392;42.688;23.298;2023-09-19T14:03:27;1.88;;;1.77;;
10687;SDS011;5392;42.688;23.298;2023-09-19T14:05:54;4.68;;;1.88;;
10687;SDS011;5392;42.688;23.298;2023-09-19T14:08:21;3.88;;;2.03;;
10687;SDS011;5392;42.688;23.298;2023-09-19T14:10:50;2.72;;;1.90;;
10687;SDS011;5392;42.688;23.298;2023-09-19T14:13:17;2.63;;;1.95;;
10687;SDS011;5392;42.688;23.298;2023-09-19T14:15:44;2.97;;;2.40;;
10687;SDS011;5392;42.688;23.298;2023-09-19T14:18:10;2.83;;;2.08;;
10687;SDS011;5392;42.688;23.298;2023-09-19T14:20:38;2.20;;;2.00;;
10687;SDS011;5392;42.688;23.298;2023-09-19T14:23:08;2.30;;;2.17;;
10687;SDS011;5392;42.688;23.298;2023-09-19T14:25:35;2.42;;;2.33;;
10687;SDS011;5392;42.688;23.298;2023-09-19T14:28:02;4.55;;;2.80;;
10687;SDS011;5392;42.688;23.298;2023-09-19T14:30:29;4.38;;;1.90;;
10687;SDS011;5392;42.688;23.298;2023-09-19T14:32:56;3.75;;;2.33;;
10687;SDS011;5392;42.688;23.298;2023-09-19T14:35:24;2.60;;;2.40;;
10687;SDS011;5392;42.688;23.298;2023-09-19T14:37:51;5.22;;;2.72;;
10687;SDS011;5392;42.688;23.298;2023-09-19T14:40:18;4.38;;;2.45;;
10687;SDS011;5392;42.688;23.298;2023-09-19T14:42:45;3.33;;;1.88;;
10687;SDS011;5392;42.688;23.298;2023-09-19T14:45:15;2.42;;;2.10;;
10687;SDS011;5392;42.688;23.298;2023-09-19T14:47:45;2.10;;;2.00;;
10687;SDS011;5392;42.688;23.298;2023-09-19T14:50:13;2.20;;;2.08;;
10687;SDS011;5392;42.688;23.298;2023-09-19T14:52:41;2.67;;;2.50;;
10687;SDS011;5392;42.688;23.298;2023-09-19T14:55:09;3.95;;;2.38;;
10687;SDS011;5392;42.688;23.298;2023-09-19T14:57:41;3.00;;;2.30;;
10687;SDS011;5392;42.688;23.298;2023-09-19T15:00:11;2.63;;;2.50;;
10687;SDS011;5392;42.688;23.298;2023-09-19T15:02:39;4.63;;;2.92;;
10687;SDS011;5392;42.688;23.298;2023-09-19T15:05:07;2.83;;;2.58;;
10687;SDS011;5392;42.688;23.298;2023-09-19T15:07:35;7.40;;;2.08;;
10687;SDS011;5392;42.688;23.298;2023-09-19T15:10:04;3.35;;;2.88;;
10687;SDS011;5392;42.688;23.298;2023-09-19T15:12:33;5.40;;;3.33;;
10687;SDS011;5392;42.688;23.298;2023-09-19T15:15:01;4.75;;;3.17;;
10687;SDS011;5392;42.688;23.298;2023-09-19T15:17:28;3.45;;;2.55;;
10687;SDS011;5392;42.688;23.298;2023-09-19T15:19:55;2.70;;;2.60;;
10687;SDS011;5392;42.688;23.298;2023-09-19T15:22:22;2.53;;;2.22;;
10687;SDS011;5392;42.688;23.298;2023-09-19T15:24:49;5.07;;;2.95;;
10687;SDS011;5392;42.688;23.298;2023-09-19T15:27:16;3.80;;;3.13;;
10687;SDS011;5392;42.688;23.298;2023-09-19T15:29:46;2.80;;;2.58;;
10687;SDS011;5392;42.688;23.298;2023-09-19T15:32:13;2.50;;;2.40;;
10687;SDS011;5392;42.688;23.298;2023-09-19T15:34:39;3.15;;;2.67;;
10687;SDS011;5392;42.688;23.298;2023-09-19T15:37:06;2.45;;;2.35;;
10687;SDS011;5392;42.688;23.298;2023-09-19T15:39:33;2.50;;;2.30;;
10687;SDS011;5392;42.688;23.298;2023-09-19T15:42:00;2.70;;;2.58;;
10687;SDS011;5392;42.688;23.298;2023-09-19T15:44:27;2.72;;;2.42;;
10687;SDS011;5392;42.688;23.298;2023-09-19T15:46:54;5.03;;;3.30;;
10687;SDS011;5392;42.688;23.298;2023-09-19T15:49:21;3.75;;;2.47;;
10687;SDS011;5392;42.688;23.298;2023-09-19T15:51:49;8.95;;;3.80;;
10687;SDS011;5392;42.688;23.298;2023-09-19T15:54:16;2.70;;;2.53;;
10687;SDS011;5392;42.688;23.298;2023-09-19T15:56:44;4.00;;;3.13;;
10687;SDS011;5392;42.688;23.298;2023-09-19T15:59:13;6.00;;;3.13;;